Time;durP1;ratioP1;P1;durP2;ratioP2;P2;SDS_P1;SDS_P2;PMS_P1;PMS_P2;Temp;Humidity;BMP_temperature;BMP_pressure;BME280_temperature;BME280_humidity;BME280_pressure;Samples;Min_cycle;Max_cycle;Signal;HPM_P1;HPM_P2
2023/12/20 00:00:54;;;;;;;16.45;1.80;;;;;;;-146.25;100.00;52641.94;2080380;28;31881;-78
2023/12/20 00:01:55;;;;;;;15.68;2.03;;;;;;;-146.25;100.00;52668.28;2080219;28;33904;-79
2023/12/20 00:02:58;;;;;;;13.70;1.60;;;;;;;-146.25;100.00;52660.19;2081139;28;20046;-77
2023/12/20 00:03:59;;;;;;;12.35;1.17;;;;;;;-146.25;100.00;52629.75;2080362;28;32359;-78
2023/12/20 00:05:01;;;;;;;14.57;1.20;;;;;;;-146.25;100.00;52702.75;2080332;28;20041;-78
2023/12/20 00:06:06;;;;;;;9.45;1.27;;;;;;;-146.25;100.00;52629.75;2080636;28;36229;-78
2023/12/20 00:07:07;;;;;;;12.55;1.23;;;;;;;-146.25;100.00;52710.88;2080236;28;34022;-76
2023/12/20 00:08:09;;;;;;;14.90;1.05;;;;;;;-146.25;100.00;52664.22;2080675;28;31866;-78
2023/12/20 00:09:13;;;;;;;12.27;0.85;;;;;;;-146.25;100.00;52672.34;2080248;28;33175;-77
2023/12/20 00:10:15;;;;;;;12.70;1.25;;;;;;;-146.25;100.00;52635.84;2079883;28;33850;-79
2023/12/20 00:11:17;;;;;;;12.43;1.00;;;;;;;-146.25;100.00;52623.69;2081080;28;20123;-77
2023/12/20 00:12:19;;;;;;;12.35;1.20;;;;;;;-146.25;100.00;52615.56;2080132;28;37362;-78
2023/12/20 00:13:20;;;;;;;15.93;1.08;;;;;;;-146.25;100.00;52682.47;2080603;28;32188;-79
2023/12/20 00:14:22;;;;;;;14.13;1.05;;;;;;;-146.25;100.00;52660.19;2080821;28;34500;-78
2023/12/20 00:15:24;;;;;;;9.48;1.10;;;;;;;-146.25;100.00;52643.97;2080218;28;38124;-78
2023/12/20 00:16:26;;;;;;;9.50;0.77;;;;;;;-146.25;100.00;52648.00;2080607;28;26928;-79
2023/12/20 00:17:27;;;;;;;14.60;0.85;;;;;;;-146.25;100.00;52650.03;2081029;28;34935;-78
2023/12/20 00:18:29;;;;;;;9.73;1.60;;;;;;;-146.25;100.00;52692.63;2071024;28;30681;-78
2023/12/20 00:19:31;;;;;;;13.70;1.30;;;;;;;-146.25;100.00;52670.31;2072256;28;20038;-78
2023/12/20 00:20:35;;;;;;;21.63;1.38;;;;;;;-146.25;100.00;52672.34;2080378;28;37333;-79
2023/12/20 00:21:37;;;;;;;12.60;0.93;;;;;;;-146.25;100.00;52639.91;2080794;28;31109;-77
2023/12/20 00:22:39;;;;;;;16.10;0.95;;;;;;;-146.25;100.00;52641.94;2080379;28;33341;-78
2023/12/20 00:23:43;;;;;;;16.85;1.27;;;;;;;-146.25;100.00;52672.34;2080224;28;34192;-78
2023/12/20 00:24:45;;;;;;;13.35;0.93;;;;;;;-146.25;100.00;52635.84;2080788;28;20037;-79
2023/12/20 00:25:47;;;;;;;15.57;1.63;;;;;;;-146.25;100.00;52698.72;2079625;28;37103;-78
2023/12/20 00:26:49;;;;;;;11.43;0.80;;;;;;;-146.25;100.00;52613.53;2080277;28;34978;-78
2023/12/20 00:27:50;;;;;;;13.40;0.80;;;;;;;-146.25;100.00;52639.91;2081184;28;20768;-77
2023/12/20 00:28:52;;;;;;;10.32;1.10;;;;;;;-146.25;100.00;52670.31;2080514;28;35443;-78
2023/12/20 00:29:54;;;;;;;17.35;1.10;;;;;;;-146.25;100.00;52680.47;2080090;28;33560;-78
2023/12/20 00:30:56;;;;;;;18.63;1.15;;;;;;;-146.25;100.00;52682.47;2080780;28;20054;-78
2023/12/20 00:31:57;;;;;;;13.68;0.95;;;;;;;-146.25;100.00;52650.03;2080369;28;34284;-77
2023/12/20 00:33:02;;;;;;;12.10;0.95;;;;;;;-146.25;100.00;52670.31;2080343;28;34199;-78
2023/12/20 00:34:04;;;;;;;13.82;0.98;;;;;;;-146.25;100.00;52652.06;2080983;28;20037;-76
2023/12/20 00:35:06;;;;;;;17.42;1.10;;;;;;;-146.25;100.00;52615.56;2080342;28;33581;-78
2023/12/20 00:36:08;;;;;;;14.80;1.38;;;;;;;-146.25;100.00;52670.31;2071502;28;34391;-77
2023/12/20 00:37:10;;;;;;;17.85;1.23;;;;;;;-146.25;100.00;52666.25;2071749;28;33967;-78
2023/12/20 00:38:12;;;;;;;11.85;1.10;;;;;;;-146.25;100.00;52637.88;2080345;28;33623;-76
2023/12/20 00:39:14;;;;;;;18.80;1.00;;;;;;;-146.25;100.00;52658.16;2080623;28;20112;-79
2023/12/20 00:40:15;;;;;;;10.30;0.90;;;;;;;-146.25;100.00;52658.16;2079525;28;33061;-78
2023/12/20 00:41:17;;;;;;;9.95;1.20;;;;;;;-146.25;100.00;52668.28;2080171;28;36896;-78
2023/12/20 00:42:19;;;;;;;22.58;1.70;;;;;;;-146.25;100.00;52672.34;2080017;28;35235;-78
2023/12/20 00:43:21;;;;;;;12.25;0.80;;;;;;;-146.25;100.00;52656.13;2080520;28;38493;-78
2023/12/20 00:44:25;;;;;;;13.20;1.30;;;;;;;-146.25;100.00;52652.06;2080368;28;35489;-78
2023/12/20 00:45:30;;;;;;;15.40;1.05;;;;;;;-146.25;100.00;52645.97;2080815;28;20898;-77
2023/12/20 00:46:32;;;;;;;23.75;1.42;;;;;;;-146.25;100.00;52643.97;2080216;28;35556;-75
2023/12/20 00:47:34;;;;;;;11.35;1.08;;;;;;;-146.25;100.00;52666.25;2080895;28;20077;-78
2023/12/20 00:48:35;;;;;;;18.33;1.40;;;;;;;-146.25;100.00;52672.34;2080196;28;34551;-79
2023/12/20 00:49:37;;;;;;;17.48;1.30;;;;;;;-146.25;100.00;52650.03;2080250;28;33994;-78
2023/12/20 00:50:39;;;;;;;17.10;1.05;;;;;;;-146.25;100.00;52680.47;2080315;28;33016;-77
2023/12/20 00:51:41;;;;;;;18.08;1.17;;;;;;;-146.25;100.00;52672.34;2080478;28;32884;-78
2023/12/20 00:52:46;;;;;;;10.98;1.13;;;;;;;-146.25;100.00;52633.81;2080857;28;20160;-78
2023/12/20 00:53:50;;;;;;;11.85;1.10;;;;;;;-146.25;100.00;52654.09;2080290;28;27576;-78
2023/12/20 00:54:52;;;;;;;13.60;1.02;;;;;;;-146.25;100.00;52650.03;2070866;28;36320;-78
2023/12/20 00:55:58;;;;;;;13.55;0.98;;;;;;;-146.25;100.00;52650.03;2072501;28;20429;-78
2023/12/20 00:57:00;;;;;;;17.35;1.17;;;;;;;-146.25;100.00;52656.13;2080223;28;35780;-78
2023/12/20 00:58:02;;;;;;;15.73;1.05;;;;;;;-146.25;100.00;52672.34;2080075;28;36002;-78
2023/12/20 00:59:03;;;;;;;10.75;1.05;;;;;;;-146.25;100.00;52684.50;2080809;28;20050;-78
2023/12/20 01:00:09;;;;;;;13.25;1.10;;;;;;;-146.25;100.00;52692.63;2079954;28;36525;-78
2023/12/20 01:01:11;;;;;;;18.80;1.10;;;;;;;-146.25;100.00;52650.03;2080236;28;34653;-77
2023/12/20 01:02:13;;;;;;;17.70;1.27;;;;;;;-146.25;100.00;52680.47;2072157;28;20066;-78
2023/12/20 01:03:15;;;;;;;10.10;1.48;;;;;;;-146.25;100.00;52648.00;2071300;28;33045;-78
2023/12/20 01:04:17;;;;;;;15.85;1.10;;;;;;;-146.25;100.00;52672.34;2079571;28;35802;-79
2023/12/20 01:05:23;;;;;;;14.63;1.35;;;;;;;-146.25;100.00;52625.72;2080929;28;20073;-78
2023/12/20 01:06:25;;;;;;;13.45;1.08;;;;;;;-146.25;100.00;52680.47;2080314;28;37556;-78
2023/12/20 01:07:27;;;;;;;9.68;1.00;;;;;;;-146.25;100.00;52621.66;2079846;28;34046;-74
2023/12/20 01:08:28;;;;;;;11.75;1.15;;;;;;;-146.25;100.00;52676.41;2080115;28;35578;-78
2023/12/20 01:09:30;;;;;;;18.20;1.10;;;;;;;-146.25;100.00;52704.78;2080145;28;35230;-78
2023/12/20 01:10:32;;;;;;;10.05;0.70;;;;;;;-146.25;100.00;52688.56;2079739;28;36329;-78
2023/12/20 01:11:34;;;;;;;13.82;0.70;;;;;;;-146.25;100.00;52676.41;2080295;28;20072;-77
2023/12/20 01:12:38;;;;;;;12.10;0.80;;;;;;;-146.25;100.00;52648.00;2070633;28;36336;-78
2023/12/20 01:13:42;;;;;;;9.27;0.68;;;;;;;-146.25;100.00;52641.94;2071155;28;35802;-77
2023/12/20 01:14:44;;;;;;;17.90;0.90;;;;;;;-146.25;100.00;52680.47;2080158;28;32267;-79
2023/12/20 01:15:47;;;;;;;17.10;1.00;;;;;;;-146.25;100.00;52619.63;2079686;28;36545;-78
2023/12/20 01:16:49;;;;;;;12.95;1.05;;;;;;;-146.25;100.00;52633.81;2080205;28;32862;-78
2023/12/20 01:17:51;;;;;;;13.43;1.02;;;;;;;-146.25;100.00;52648.00;2080761;28;20057;-78
2023/12/20 01:18:53;;;;;;;14.10;0.90;;;;;;;-146.25;100.00;52676.41;2080032;28;36422;-78
2023/12/20 01:19:55;;;;;;;15.43;1.02;;;;;;;-146.25;100.00;52670.31;2079943;28;34129;-76
2023/12/20 01:21:03;;;;;;;14.18;1.10;;;;;;;-146.25;100.00;52658.16;2079804;28;35015;-78
2023/12/20 01:22:04;;;;;;;11.75;0.82;;;;;;;-146.25;100.00;52637.88;2079849;28;36201;-79
2023/12/20 01:23:06;;;;;;;16.08;0.90;;;;;;;-146.25;100.00;52635.84;2080705;28;20041;-79
2023/12/20 01:24:11;;;;;;;16.05;1.25;;;;;;;-146.25;100.00;52692.63;2079883;28;37101;-77
2023/12/20 01:25:13;;;;;;;10.48;0.80;;;;;;;-146.25;100.00;52684.50;2080069;28;34270;-78
2023/12/20 01:26:15;;;;;;;16.63;0.73;;;;;;;-146.25;100.00;52714.94;2079805;28;33434;-77
2023/12/20 01:27:16;;;;;;;14.35;1.20;;;;;;;-146.25;100.00;52656.13;2079878;28;37746;-79
2023/12/20 01:28:18;;;;;;;12.20;0.85;;;;;;;-146.25;100.00;52652.06;2080443;28;32421;-78
2023/12/20 01:29:20;;;;;;;14.02;0.65;;;;;;;-146.25;100.00;52658.16;2080334;28;20945;-78
2023/12/20 01:30:22;;;;;;;16.25;1.27;;;;;;;-146.25;100.00;52658.16;2079603;28;38132;-78
2023/12/20 01:31:23;;;;;;;9.05;0.77;;;;;;;-146.25;100.00;52668.28;2079934;28;36800;-78
2023/12/20 01:32:25;;;;;;;12.30;0.82;;;;;;;-146.25;100.00;52694.66;2080650;28;20169;-77
2023/12/20 01:33:27;;;;;;;15.57;1.25;;;;;;;-146.25;100.00;52625.72;2079809;28;35807;-77
2023/12/20 01:34:29;;;;;;;15.48;0.80;;;;;;;-146.25;100.00;52682.47;2079930;28;37184;-78
2023/12/20 01:35:31;;;;;;;13.32;0.80;;;;;;;-146.25;100.00;52670.31;2080457;28;20132;-78
2023/12/20 01:36:32;;;;;;;14.25;0.82;;;;;;;-146.25;100.00;52639.91;2080857;28;21504;-77
2023/12/20 01:37:34;;;;;;;13.90;0.95;;;;;;;-146.25;100.00;52662.22;2079945;28;34479;-78
2023/12/20 01:38:39;;;;;;;14.68;1.20;;;;;;;-146.25;100.00;52627.75;2080654;28;20038;-79
2023/12/20 01:39:41;;;;;;;19.92;1.33;;;;;;;-146.25;100.00;52631.78;2080265;28;20025;-77
2023/12/20 01:40:43;;;;;;;12.77;0.50;;;;;;;-146.25;100.00;52668.28;2080432;28;20045;-78
2023/12/20 01:41:45;;;;;;;10.63;1.08;;;;;;;-146.25;100.00;52627.75;2080600;28;20045;-78
2023/12/20 01:42:47;;;;;;;7.30;0.80;;;;;;;-146.25;100.00;52643.97;2079893;28;35236;-77
2023/12/20 01:43:53;;;;;;;17.17;0.77;;;;;;;-146.25;100.00;52648.00;2080732;28;20064;-78
2023/12/20 01:44:54;;;;;;;14.48;0.95;;;;;;;-146.25;100.00;52678.44;2079856;28;33424;-78
2023/12/20 01:45:58;;;;;;;9.60;1.10;;;;;;;-146.25;100.00;52662.22;2079644;28;34504;-78
2023/12/20 01:47:00;;;;;;;11.93;0.85;;;;;;;-146.25;100.00;52658.16;2071032;28;33441;-78
2023/12/20 01:48:05;;;;;;;15.43;1.20;;;;;;;-146.25;100.00;52704.78;2071359;28;32346;-78
2023/12/20 01:49:07;;;;;;;18.52;1.10;;;;;;;-146.25;100.00;52670.31;2070994;28;38375;-78
2023/12/20 01:50:09;;;;;;;13.15;1.05;;;;;;;-146.25;100.00;52688.56;2072767;28;20046;-77
2023/12/20 01:51:11;;;;;;;11.63;1.27;;;;;;;-146.25;100.00;52680.47;2079395;28;38256;-79
2023/12/20 01:52:13;;;;;;;15.07;1.10;;;;;;;-146.25;100.00;52682.47;2080000;28;33979;-78
2023/12/20 01:53:15;;;;;;;17.10;1.40;;;;;;;-146.25;100.00;52645.97;2079765;28;34953;-78
2023/12/20 01:54:19;;;;;;;14.85;1.02;;;;;;;-146.25;100.00;52660.19;2079660;28;39751;-78
2023/12/20 01:55:25;;;;;;;13.98;1.27;;;;;;;-146.25;100.00;52652.06;2071505;28;20038;-77
2023/12/20 01:56:28;;;;;;;17.20;1.10;;;;;;;-146.25;100.00;52654.09;2073081;28;20169;-77
2023/12/20 01:57:31;;;;;;;13.10;1.40;;;;;;;-146.25;100.00;52656.13;2070812;28;32784;-76
2023/12/20 01:58:33;;;;;;;13.98;0.95;;;;;;;-146.25;100.00;52676.41;2072162;28;20034;-78
2023/12/20 01:59:39;;;;;;;16.50;1.02;;;;;;;-146.25;100.00;52648.00;2070902;28;37437;-77
2023/12/20 02:00:41;;;;;;;16.60;1.13;;;;;;;-146.25;100.00;52672.34;2071905;28;34900;-78
2023/12/20 02:01:43;;;;;;;13.38;1.30;;;;;;;-146.25;100.00;52688.56;2071796;28;20840;-78
2023/12/20 02:02:45;;;;;;;20.00;1.58;;;;;;;-146.25;100.00;52676.41;2071270;28;37146;-79
2023/12/20 02:03:47;;;;;;;16.25;1.08;;;;;;;-146.25;100.00;52613.53;2079527;28;35962;-78
2023/12/20 02:04:50;;;;;;;13.75;1.30;;;;;;;-146.25;100.00;52650.03;2071608;28;20047;-78
2023/12/20 02:05:53;;;;;;;11.07;1.30;;;;;;;-146.25;100.00;52668.28;2071106;28;37436;-78
2023/12/20 02:06:57;;;;;;;12.27;1.25;;;;;;;-146.25;100.00;52682.47;2071151;28;33680;-78
2023/12/20 02:07:59;;;;;;;16.88;1.25;;;;;;;-146.25;100.00;52674.38;2072237;28;20045;-78
2023/12/20 02:09:02;;;;;;;13.80;1.23;;;;;;;-146.25;100.00;52704.78;2070843;28;37234;-78
2023/12/20 02:10:04;;;;;;;14.15;1.30;;;;;;;-146.25;100.00;52698.72;2071014;28;34017;-78
2023/12/20 02:11:06;;;;;;;14.52;1.30;;;;;;;-146.25;100.00;52716.97;2079049;28;32854;-78
2023/12/20 02:12:08;;;;;;;13.02;1.10;;;;;;;-146.25;100.00;52656.13;2079642;28;36130;-76
2023/12/20 02:13:09;;;;;;;16.50;0.95;;;;;;;-146.25;100.00;52672.34;2079971;28;34888;-78
2023/12/20 02:14:11;;;;;;;18.27;1.27;;;;;;;-146.25;100.00;52635.84;2070576;28;31199;-77
2023/12/20 02:15:13;;;;;;;20.45;1.52;;;;;;;-146.25;100.00;52666.25;2070913;28;36830;-79
2023/12/20 02:16:15;;;;;;;9.90;0.80;;;;;;;-146.25;100.00;52674.38;2080420;28;20038;-78
2023/12/20 02:17:19;;;;;;;16.90;1.05;;;;;;;-146.25;100.00;52645.97;2079110;28;36829;-78
2023/12/20 02:18:22;;;;;;;15.25;1.50;;;;;;;-146.25;100.00;52662.22;2079229;28;35387;-78
2023/12/20 02:19:24;;;;;;;12.30;0.90;;;;;;;-146.25;100.00;52670.31;2079702;28;31761;-78
2023/12/20 02:20:26;;;;;;;13.73;1.20;;;;;;;-146.25;100.00;52672.34;2079634;28;36186;-78
2023/12/20 02:21:36;;;;;;;12.90;1.20;;;;;;;-146.25;100.00;52696.69;2080245;28;20077;-76
2023/12/20 02:22:38;;;;;;;14.68;0.90;;;;;;;-146.25;100.00;52633.81;2070775;28;34695;-78
2023/12/20 02:23:40;;;;;;;12.82;1.02;;;;;;;-146.25;100.00;52641.94;2072292;28;20038;-78
2023/12/20 02:24:42;;;;;;;13.57;0.90;;;;;;;-146.25;100.00;52641.94;2079397;28;35589;-77
2023/12/20 02:25:44;;;;;;;11.38;1.48;;;;;;;-146.25;100.00;52678.44;2079366;28;37237;-78
2023/12/20 02:26:46;;;;;;;9.57;1.25;;;;;;;-146.25;100.00;52664.22;2070849;28;34719;-78
2023/12/20 02:27:49;;;;;;;16.40;1.20;;;;;;;-146.25;100.00;52627.75;2071936;28;20079;-78
2023/12/20 02:28:51;;;;;;;17.83;1.73;;;;;;;-146.25;100.00;52656.13;2070456;28;36175;-78
2023/12/20 02:29:53;;;;;;;13.60;1.00;;;;;;;-146.25;100.00;52676.41;2071798;28;20161;-78
2023/12/20 02:30:55;;;;;;;20.02;1.20;;;;;;;-146.25;100.00;52682.47;2079398;28;36565;-78
2023/12/20 02:31:57;;;;;;;12.05;1.00;;;;;;;-146.25;100.00;52670.31;2079626;28;34460;-78
2023/12/20 02:33:03;;;;;;;14.38;1.45;;;;;;;-146.25;100.00;52639.91;2079658;28;31686;-78
2023/12/20 02:34:05;;;;;;;16.00;1.33;;;;;;;-146.25;100.00;52680.47;2079580;28;38156;-78
2023/12/20 02:35:07;;;;;;;19.00;2.38;;;;;;;-146.25;100.00;52656.13;2080578;28;20049;-78
2023/12/20 02:36:09;;;;;;;16.70;1.02;;;;;;;-146.25;100.00;52641.94;2079720;28;39641;-78
2023/12/20 02:37:11;;;;;;;16.38;0.85;;;;;;;-146.25;100.00;52664.22;2079696;28;35936;-79
2023/12/20 02:38:15;;;;;;;24.65;1.35;;;;;;;-146.25;100.00;52650.03;2080185;28;21074;-77
2023/12/20 02:39:17;;;;;;;13.48;0.80;;;;;;;-146.25;100.00;52654.09;2079446;28;34720;-77
2023/12/20 02:40:18;;;;;;;20.65;0.77;;;;;;;-146.25;100.00;52619.63;2079821;28;34241;-78
2023/12/20 02:41:20;;;;;;;21.45;1.33;;;;;;;-146.25;100.00;52684.50;2080825;28;32804;-77
2023/12/20 02:42:25;;;;;;;14.52;1.50;;;;;;;-146.25;100.00;52672.34;2082774;28;20084;-78
2023/12/20 02:43:27;;;;;;;8.18;0.95;;;;;;;-146.25;100.00;52631.78;2082443;28;33608;-78
2023/12/20 02:44:29;;;;;;;13.63;1.60;;;;;;;-146.25;100.00;52672.34;2082369;28;32600;-77
2023/12/20 02:45:30;;;;;;;15.00;1.27;;;;;;;-146.25;100.00;52668.28;2081936;28;37371;-78
2023/12/20 02:46:32;;;;;;;12.98;1.42;;;;;;;-146.25;100.00;52625.72;2082150;28;33595;-77
2023/12/20 02:47:34;;;;;;;14.00;1.15;;;;;;;-146.25;100.00;52670.31;2082265;28;34773;-77
2023/12/20 02:48:38;;;;;;;14.70;1.10;;;;;;;-146.25;100.00;52672.34;2082159;28;32162;-78
2023/12/20 02:49:39;;;;;;;15.80;1.10;;;;;;;-146.25;100.00;52652.06;2082487;28;29482;-77
2023/12/20 02:50:41;;;;;;;14.18;1.13;;;;;;;-146.25;100.00;52674.38;2082525;28;25217;-78
2023/12/20 02:51:43;;;;;;;13.55;1.10;;;;;;;-146.25;100.00;52690.59;2082438;28;31110;-78
2023/12/20 02:52:45;;;;;;;13.43;0.77;;;;;;;-146.25;100.00;52660.19;2082029;28;36559;-78
2023/12/20 02:53:49;;;;;;;12.27;1.27;;;;;;;-146.25;100.00;52678.44;2081772;28;38015;-77
2023/12/20 02:54:51;;;;;;;17.35;1.33;;;;;;;-146.25;100.00;52660.19;2081786;28;34427;-78
2023/12/20 02:55:53;;;;;;;20.77;2.13;;;;;;;-146.25;100.00;52676.41;2073175;28;36332;-77
2023/12/20 02:56:55;;;;;;;18.77;2.08;;;;;;;-146.25;100.00;52676.41;2073809;28;38559;-78
2023/12/20 02:57:56;;;;;;;12.75;0.90;;;;;;;-146.25;100.00;52676.41;2073090;28;35175;-78
2023/12/20 02:58:58;;;;;;;11.48;1.20;;;;;;;-146.25;100.00;52631.78;2073654;28;33407;-78
2023/12/20 03:00:00;;;;;;;11.50;0.73;;;;;;;-146.25;100.00;52696.69;2081955;28;36348;-77
2023/12/20 03:01:04;;;;;;;16.10;1.10;;;;;;;-146.25;100.00;52639.91;2082258;28;36885;-78
2023/12/20 03:02:06;;;;;;;13.32;0.82;;;;;;;-146.25;100.00;52672.34;2081514;28;33003;-77
2023/12/20 03:03:08;;;;;;;13.70;1.30;;;;;;;-146.25;100.00;52674.38;2081454;28;38242;-77
2023/12/20 03:04:12;;;;;;;12.63;1.20;;;;;;;-146.25;100.00;52645.97;2082623;28;20038;-78
2023/12/20 03:05:14;;;;;;;12.73;0.93;;;;;;;-146.25;100.00;52623.69;2082162;28;36105;-77
2023/12/20 03:06:19;;;;;;;18.42;1.38;;;;;;;-146.25;100.00;52668.28;2081649;28;37584;-77
2023/12/20 03:07:21;;;;;;;13.48;1.13;;;;;;;-146.25;100.00;52674.38;2081907;28;30475;-78
2023/12/20 03:08:23;;;;;;;10.25;0.70;;;;;;;-146.25;100.00;52662.22;2081957;28;37881;-78
2023/12/20 03:09:25;;;;;;;15.57;1.38;;;;;;;-146.25;100.00;52680.47;2082709;28;20919;-78
2023/12/20 03:10:27;;;;;;;15.07;1.10;;;;;;;-146.25;100.00;52652.06;2081987;28;33416;-78
2023/12/20 03:11:29;;;;;;;12.45;1.35;;;;;;;-146.25;100.00;52656.13;2081826;28;34108;-77
2023/12/20 03:12:30;;;;;;;13.52;1.30;;;;;;;-146.25;100.00;52660.19;2081965;28;33491;-77
2023/12/20 03:13:32;;;;;;;16.05;1.15;;;;;;;-146.25;100.00;52615.56;2081597;28;35635;-78
2023/12/20 03:14:34;;;;;;;16.08;1.35;;;;;;;-146.25;100.00;52684.50;2082207;28;33223;-78
2023/12/20 03:15:37;;;;;;;10.80;1.10;;;;;;;-146.25;100.00;52648.00;2081789;28;36548;-78
2023/12/20 03:16:41;;;;;;;14.45;1.00;;;;;;;-146.25;100.00;52678.44;2082773;28;20046;-77
2023/12/20 03:17:43;;;;;;;13.48;1.42;;;;;;;-146.25;100.00;52678.44;2082579;28;20946;-78
2023/12/20 03:18:46;;;;;;;17.65;1.52;;;;;;;-146.25;100.00;52645.97;2081896;28;35462;-78
2023/12/20 03:19:47;;;;;;;10.25;1.10;;;;;;;-146.25;100.00;52670.31;2081633;28;38181;-76
2023/12/20 03:20:50;;;;;;;14.15;1.05;;;;;;;-146.25;100.00;52662.22;2082898;28;20172;-78
2023/12/20 03:21:53;;;;;;;17.92;1.17;;;;;;;-146.25;100.00;52615.56;2081428;28;35629;-78
2023/12/20 03:22:55;;;;;;;12.05;1.25;;;;;;;-146.25;100.00;52643.97;2082097;28;32745;-77
2023/12/20 03:23:57;;;;;;;17.25;1.65;;;;;;;-146.25;100.00;52603.41;2082201;28;37419;-78
2023/12/20 03:24:59;;;;;;;14.85;1.40;;;;;;;-146.25;100.00;52643.97;2081840;28;33812;-78
2023/12/20 03:26:01;;;;;;;16.05;1.67;;;;;;;-146.25;100.00;52670.31;2081364;28;36587;-78
2023/12/20 03:27:05;;;;;;;15.80;1.20;;;;;;;-146.25;100.00;52658.16;2082200;28;33697;-78
2023/12/20 03:28:07;;;;;;;17.30;1.50;;;;;;;-146.25;100.00;52654.09;2081729;28;35441;-79
2023/12/20 03:29:08;;;;;;;18.80;1.75;;;;;;;-146.25;100.00;52627.75;2082041;28;35349;-77
2023/12/20 03:30:10;;;;;;;19.73;1.38;;;;;;;-146.25;100.00;52680.47;2081814;28;35342;-78
2023/12/20 03:31:12;;;;;;;11.77;1.40;;;;;;;-146.25;100.00;52692.63;2081977;28;34169;-79
2023/12/20 03:32:14;;;;;;;20.73;1.83;;;;;;;-146.25;100.00;52668.28;2081512;28;36691;-78
2023/12/20 03:33:19;;;;;;;11.20;1.00;;;;;;;-146.25;100.00;52643.97;2082388;28;20050;-78
2023/12/20 03:34:23;;;;;;;16.15;1.73;;;;;;;-146.25;100.00;52623.69;2081866;28;33746;-78
2023/12/20 03:35:27;;;;;;;10.30;1.20;;;;;;;-146.25;100.00;52676.41;2081448;28;37915;-79
2023/12/20 03:36:29;;;;;;;13.88;2.10;;;;;;;-146.25;100.00;52629.75;2082536;28;20030;-78
2023/12/20 03:37:33;;;;;;;23.70;1.67;;;;;;;-146.25;100.00;52639.91;2082596;28;20897;-78
2023/12/20 03:38:34;;;;;;;18.50;1.80;;;;;;;-146.25;100.00;52658.16;2082289;28;34452;-78
2023/12/20 03:39:36;;;;;;;19.13;1.08;;;;;;;-146.25;100.00;52623.69;2081690;28;35486;-77
2023/12/20 03:40:40;;;;;;;11.35;1.00;;;;;;;-146.25;100.00;52639.91;2081818;28;38492;-78
2023/12/20 03:41:42;;;;;;;16.70;1.50;;;;;;;-146.25;100.00;52664.22;2082591;28;20038;-78
2023/12/20 03:42:44;;;;;;;14.50;1.42;;;;;;;-146.25;100.00;52674.38;2081827;28;36942;-79
2023/12/20 03:43:46;;;;;;;15.85;1.35;;;;;;;-146.25;100.00;52670.31;2081987;28;37355;-76
2023/12/20 03:44:47;;;;;;;17.27;1.48;;;;;;;-146.25;100.00;52648.00;2081833;28;33132;-78
2023/12/20 03:45:49;;;;;;;19.58;1.80;;;;;;;-146.25;100.00;52710.88;2081933;28;37907;-78
2023/12/20 03:46:51;;;;;;;12.43;1.10;;;;;;;-146.25;100.00;52652.06;2081675;28;37170;-78
2023/12/20 03:47:56;;;;;;;8.00;1.17;;;;;;;-146.25;100.00;52670.31;2082086;28;33519;-77
2023/12/20 03:48:58;;;;;;;13.02;1.00;;;;;;;-146.25;100.00;52660.19;2082108;28;38071;-78
2023/12/20 03:50:02;;;;;;;14.85;0.95;;;;;;;-146.25;100.00;52652.06;2081526;28;33478;-77
2023/12/20 03:51:04;;;;;;;12.25;1.00;;;;;;;-146.25;100.00;52648.00;2082014;28;35061;-78
2023/12/20 03:52:06;;;;;;;18.20;1.73;;;;;;;-146.25;100.00;52639.91;2081670;28;37629;-77
2023/12/20 03:53:07;;;;;;;18.45;1.27;;;;;;;-146.25;100.00;52696.69;2079366;28;34842;-78
2023/12/20 03:54:11;;;;;;;14.60;1.40;;;;;;;-146.25;100.00;52611.50;2080609;28;35189;-78
2023/12/20 03:55:13;;;;;;;13.32;0.80;;;;;;;-146.25;100.00;52676.41;2080678;28;33919;-79
2023/12/20 03:56:15;;;;;;;12.48;0.77;;;;;;;-146.25;100.00;52635.84;2080449;28;33948;-77
2023/12/20 03:57:17;;;;;;;14.93;1.15;;;;;;;-146.25;100.00;52650.03;2080461;28;36983;-79
2023/12/20 03:58:18;;;;;;;15.18;1.10;;;;;;;-146.25;100.00;52641.94;2080595;28;36433;-78
2023/12/20 03:59:20;;;;;;;8.10;0.75;;;;;;;-146.25;100.00;52652.06;2080438;28;34693;-78
2023/12/20 04:00:25;;;;;;;16.33;1.27;;;;;;;-146.25;100.00;52666.25;2080311;28;32885;-79
2023/12/20 04:01:26;;;;;;;12.48;1.08;;;;;;;-146.25;100.00;52645.97;2080782;28;35690;-78
2023/12/20 04:02:28;;;;;;;10.10;1.13;;;;;;;-146.25;100.00;52686.53;2080750;28;34349;-77
2023/12/20 04:03:30;;;;;;;17.13;1.38;;;;;;;-146.25;100.00;52660.19;2081498;28;20971;-79
2023/12/20 04:04:32;;;;;;;14.75;1.00;;;;;;;-146.25;100.00;52668.28;2080467;28;36140;-78
2023/12/20 04:05:34;;;;;;;14.30;1.38;;;;;;;-146.25;100.00;52666.25;2080615;28;34467;-78
2023/12/20 04:06:36;;;;;;;6.93;0.65;;;;;;;-146.25;100.00;52668.28;2080489;28;33508;-78
2023/12/20 04:07:38;;;;;;;14.50;1.02;;;;;;;-146.25;100.00;52654.09;2080437;28;35404;-79
2023/12/20 04:08:40;;;;;;;14.75;1.10;;;;;;;-146.25;100.00;52648.00;2072007;28;29807;-77
2023/12/20 04:09:42;;;;;;;13.88;1.55;;;;;;;-146.25;100.00;52652.06;2071557;28;37414;-78
2023/12/20 04:10:44;;;;;;;14.93;1.40;;;;;;;-146.25;100.00;52670.31;2080741;28;35433;-78
2023/12/20 04:11:46;;;;;;;14.15;1.17;;;;;;;-146.25;100.00;52662.22;2080555;28;20145;-78
2023/12/20 04:12:48;;;;;;;13.90;0.98;;;;;;;-146.25;100.00;52662.22;2080361;28;38187;-77
2023/12/20 04:13:52;;;;;;;13.45;1.20;;;;;;;-146.25;100.00;52660.19;2081092;28;20866;-78
2023/12/20 04:14:54;;;;;;;15.35;1.55;;;;;;;-146.25;100.00;52643.97;2071741;28;33758;-79
2023/12/20 04:15:56;;;;;;;12.52;1.52;;;;;;;-146.25;100.00;52668.28;2071696;28;37413;-78
2023/12/20 04:16:57;;;;;;;13.68;1.30;;;;;;;-146.25;100.00;52629.75;2080305;28;33650;-78
2023/12/20 04:18:02;;;;;;;11.85;1.17;;;;;;;-146.25;100.00;52682.47;2080631;28;32215;-78
2023/12/20 04:19:03;;;;;;;14.90;1.38;;;;;;;-146.25;100.00;52625.72;2071754;28;30798;-78
2023/12/20 04:20:07;;;;;;;10.10;1.00;;;;;;;-146.25;100.00;52648.00;2071964;28;32189;-78
2023/12/20 04:21:11;;;;;;;16.95;1.77;;;;;;;-146.25;100.00;52625.72;2080065;28;31719;-76
2023/12/20 04:22:14;;;;;;;16.83;1.05;;;;;;;-146.25;100.00;52668.28;2071259;28;38410;-78
2023/12/20 04:23:16;;;;;;;13.60;1.20;;;;;;;-146.25;100.00;52656.13;2072198;28;33617;-77
2023/12/20 04:24:18;;;;;;;13.43;1.52;;;;;;;-146.25;100.00;52666.25;2080521;28;33616;-78
2023/12/20 04:25:20;;;;;;;13.98;1.27;;;;;;;-146.25;100.00;52637.88;2080675;28;36252;-77
2023/12/20 04:26:22;;;;;;;18.40;1.52;;;;;;;-146.25;100.00;52694.66;2080370;28;30352;-78
2023/12/20 04:27:23;;;;;;;20.90;1.60;;;;;;;-146.25;100.00;52670.31;2080443;28;32941;-78
2023/12/20 04:28:25;;;;;;;13.40;1.63;;;;;;;-146.25;100.00;52627.75;2080113;28;37214;-78
2023/12/20 04:29:27;;;;;;;14.75;1.40;;;;;;;-146.25;100.00;52650.03;2080105;28;35015;-78
2023/12/20 04:30:29;;;;;;;11.90;1.25;;;;;;;-146.25;100.00;52670.31;2080436;28;32980;-78
2023/12/20 04:31:31;;;;;;;15.00;1.15;;;;;;;-146.25;100.00;52637.88;2080172;28;36107;-78
2023/12/20 04:32:33;;;;;;;14.10;1.40;;;;;;;-146.25;100.00;52643.97;2079855;28;33406;-79
2023/12/20 04:33:34;;;;;;;14.38;1.30;;;;;;;-146.25;100.00;52633.81;2080951;28;20097;-78
2023/12/20 04:34:37;;;;;;;18.83;1.60;;;;;;;-146.25;100.00;52619.63;2080193;28;35490;-78
2023/12/20 04:35:40;;;;;;;15.43;1.42;;;;;;;-146.25;100.00;52641.94;2080407;28;36544;-79
2023/12/20 04:36:42;;;;;;;18.35;1.67;;;;;;;-146.25;100.00;52664.22;2080373;28;24934;-78
2023/12/20 04:37:44;;;;;;;17.60;1.98;;;;;;;-146.25;100.00;52658.16;2080483;28;35103;-79
2023/12/20 04:38:49;;;;;;;12.25;1.33;;;;;;;-146.25;100.00;52674.38;2080857;28;20038;-77
2023/12/20 04:39:53;;;;;;;15.15;1.60;;;;;;;-146.25;100.00;52648.00;2080387;28;34471;-77
2023/12/20 04:40:54;;;;;;;16.88;2.17;;;;;;;-146.25;100.00;52654.09;2080064;28;36236;-78